Address 0x4eff0c02bddee9e7cf690f612c312b301a33784d

 
 
Txn Hash Method
Block
From
To
Value [Txn Fee]
0xfa544a6ca8f2bcd1908449231449ad0256c9853ae10351d93e4483b5f8f5f739Transfer105904882021-09-03 10:41:4522 days 5 hrs ago0x4eff0c02bddee9e7cf690f612c312b301a33784dOUT0x5ae72e5477775fe4f958713606ba002d11761c3d0.003 BNB0.0001071
0x9a98c90cc0b5c27bb3c1e5e73bff48712f9983875b8347ac3fcc0dcbc9fdb519Transfer98534492021-08-08 12:56:3348 days 3 hrs ago0x4eff0c02bddee9e7cf690f612c312b301a33784dOUT BUSD-T Stablecoin0 BNB0.0002606253
0x3ab7942e47b4535acd13b7f0703c99c0496f0ecbd349b8264335e9cc3999e24fTransfer98534132021-08-08 12:54:4548 days 3 hrs ago0x7c9c0a142df7420ba792f94ae97e898d00665188 IN 0x4eff0c02bddee9e7cf690f612c312b301a33784d0.004 BNB0.0001071
0xd43cd7a5130e0f19a6b999ce4b341882c821d2e03c5a960007ad3e6f34080f53Remove Liquidity...98530912021-08-08 12:38:2548 days 3 hrs ago0x4eff0c02bddee9e7cf690f612c312b301a33784dOUT 0xa4ce57f063a610290eeef0564b034278438d06cf0 BNB0.0015808725
0x71a9e3bb4756558ecb13dd870222cae7eb5af9dc7c9ea51946823a6383418890Un Stake98529782021-08-08 12:32:4648 days 3 hrs ago0x4eff0c02bddee9e7cf690f612c312b301a33784dOUT 0x252fde22c7d20aca62a840ca3b66fb0e206ead340 BNB0.0016231
0x70b1e07926442b332c660aa56681d114554dec54b5876723bbe707000fec76dfTransfer98529512021-08-08 12:31:2548 days 3 hrs ago0x0dcc309eeec4c00dbd09e28dab97cac27b8a5436 IN 0x4eff0c02bddee9e7cf690f612c312b301a33784d0.004 BNB0.0002121
0x673d56478be9a732c20d3b2d278db41a6e20f6d929c9a4ef35f96783e4257b07Remove Liquidity...98528242021-08-08 12:25:0248 days 3 hrs ago0x4eff0c02bddee9e7cf690f612c312b301a33784dOUT 0xa4ce57f063a610290eeef0564b034278438d06cf0 BNB0.0017338113
0x665d76add3ebb249c52835f438c5a85cf1c7aec659bea479d5e3bb23fb814a6fStake96879702021-08-02 14:04:3654 days 2 hrs ago0x4eff0c02bddee9e7cf690f612c312b301a33784dOUT 0x252fde22c7d20aca62a840ca3b66fb0e206ead340 BNB0.002258035
0x8181fef719d9790f1caf238ca50e52c95f15a37990280327fa475b8de7fe52e7Approve96879582021-08-02 14:03:5354 days 2 hrs ago0x4eff0c02bddee9e7cf690f612c312b301a33784dOUT 0x5c3e370abf69bcb47a5e94503c99d8abedfa20670 BNB0.00022051
0xca81f362692d533ae3d6b31e7b764cc25aa4dd9510d48190c5478f4a72932c31Accept Invitatio...96879312021-08-02 14:02:1154 days 2 hrs ago0x4eff0c02bddee9e7cf690f612c312b301a33784dOUT 0xe71f923f8032cede47db1d73611370ba24fdf53b0 BNB0.000683335
0x89fc8849e1a2c2f056abb88c2aadfadb77fbe7ef971494f3c18f688eada4cc64Transfer96879152021-08-02 14:01:1054 days 2 hrs ago0x3989b152d7aea8fe9b4d122852db1cbadd25c8b8 IN 0x4eff0c02bddee9e7cf690f612c312b301a33784d0.006 BNB0.0001071
0x191893f8ffac576b5a98df160619eed92e5746652cbc37b525e05828092d65ffTransfer96840262021-08-02 10:38:3654 days 5 hrs ago0x4eff0c02bddee9e7cf690f612c312b301a33784dOUT0x598fdedeb5b4add6612767275c07047fc6a0ed7f0.008 BNB0.0001071
0xe8a696b22eb8e54d07227b16c0787cacad82723c1044acb308a5b22486930b3cTransfer96760312021-08-02 3:48:5154 days 12 hrs ago0x4eff0c02bddee9e7cf690f612c312b301a33784dOUT0xc74d2d4043884588e8affc947ea3ebf8f739dc780.006 BNB0.0001071
0xaf5059226986453e22dc7331ddd6edada2e9fc1e0e007661923434ff2b3a741fAdd Liquidity96614592021-08-01 15:12:1655 days 1 hr ago0x4eff0c02bddee9e7cf690f612c312b301a33784dOUT 0xa4ce57f063a610290eeef0564b034278438d06cf0 BNB0.0014458041
0x9e74b7a50760e8920a77180bdd2e21ef34a8d78472cafaa84415f79d044ecb68Approve96614492021-08-01 15:11:2955 days 1 hr ago0x4eff0c02bddee9e7cf690f612c312b301a33784dOUT 0x26b2ead96b72d4d63925f30e64a71122c27b27950 BNB0.0002267052
0x5df8e06d71da6483aa31237c25293ce6a55154acddcc9aaf361da3b70d64ce10Approve96614412021-08-01 15:11:0055 days 1 hr ago0x4eff0c02bddee9e7cf690f612c312b301a33784dOUT BUSD-T Stablecoin0 BNB0.0002264706
0x2d109d1a3b4533a74161d6ccb200a0b2220e9805ac216095b73fd06740d6fc6cTransfer95772892021-07-29 14:57:4358 days 1 hr ago0x4eff0c02bddee9e7cf690f612c312b301a33784dOUT BUSD-T Stablecoin0 BNB0.0001841865
0xd763127a29be3fc3725546ac684494a84ff7f33a027598cbc723fc74e3795735Transfer95772592021-07-29 14:55:5458 days 1 hr ago0x4eff0c02bddee9e7cf690f612c312b301a33784dOUT0x7eba28654d9e6dcdf17254069d217b2f584a272f0.006 BNB0.0001071
0x4c063616a90a232afe32216fbc32d59ea6b910604dd3640aaeaa7608312d0fb4Claim94899622021-07-26 9:11:1261 days 7 hrs ago0x4eff0c02bddee9e7cf690f612c312b301a33784dOUT 0x54f47747f997f769fbe412e590f225dd41959d4f0 BNB0.000957276
0x954ba01d08ef4caf0b94be7b0c4fa757d7a90fdb8dc48bb72f2f3225656014e6Swap93977472021-07-23 3:38:5464 days 12 hrs ago0x4eff0c02bddee9e7cf690f612c312b301a33784dOUT 0x54f47747f997f769fbe412e590f225dd41959d4f0 BNB0.001387338
0xd3bed4afaf5499633fec44fdec311fcb1b9a10a1f44cabe14e4e60d372b8a4deApprove93976732021-07-23 3:35:1264 days 12 hrs ago0x4eff0c02bddee9e7cf690f612c312b301a33784dOUT BUSD-T Stablecoin0 BNB0.0002254914
0xa8b841d69cf8453174b0c9e755aa15ec83ea097c26c021dadfef91b78ccae894Swap Exact ETH F...93184932021-07-20 9:34:3767 days 6 hrs ago0x4eff0c02bddee9e7cf690f612c312b301a33784dOUT PancakeSwap: Router v20.1 BNB0.0008997522
0xf5a62bb05a73992f7498110a8d088b5e9813cedee1419ec14d71a33d91d35b87Swap Exact ETH F...93184822021-07-20 9:34:0467 days 6 hrs ago0x4eff0c02bddee9e7cf690f612c312b301a33784dOUT PancakeSwap: Router v20.1 BNB0.0008997522
0xebad0805d2a13046170ae037d80576d83eff585aff833ad0289c004214265ab9Swap Exact ETH F...93184622021-07-20 9:33:0467 days 6 hrs ago0x4eff0c02bddee9e7cf690f612c312b301a33784dOUT PancakeSwap: Router v20.1 BNB0.0008997522
0x1166defbbe57044013c01b51fd1f6d0e74bebf10d1a533ce50578184011e7df8Swap Exact ETH F...93184442021-07-20 9:32:1067 days 6 hrs ago0x4eff0c02bddee9e7cf690f612c312b301a33784dOUT PancakeSwap: Router v20.1 BNB0.0008997522
[ Download CSV Export 
Parent Txn Hash Block From To Value
Loading

Contract Name:
0 BNB

Compiler Version
0

Optimization Enabled:
0 BNB

Other Settings:
-NA-
Block Transaction Gas Used Reward
Age Block Fee Address BC Fee Address Voting Power Jailed Incoming
Block Uncle Number Difficulty Gas Used Reward
Loading
Loading
Make sure to use the "Vote Down" button for any spammy posts, and the "Vote Up" for interesting conversations.